Ilwaco, Washington
Current Conditions -  °F | °C
As of 9:18 PM on Sunday 19 Oct 2014 (Local Time) from KAST Reporting Station
Light Rain Light Rain  
Wind Chill: 60°   Ceiling: 2900
Heat Index: 60°   Visibility: 5mi
Dew Point: 56°   Wind: 13mph
Humidity: 86%   Direction: 180°S
Pressure: 29.68"   Gusts: 17mph
Location:  46.31°N, 124.04°W
Report Text: KAST 200418Z AUTO 18011G15KT 5SM -RA BR FEW022 BKN029 OVC036 16/13 A2968 RMK AO2 P0004 T01560133
Loading
Personal Weather Stations






























Interactive Weather Map
Tropical Storm Tracking
New forecast layout! Learn more

10-Day Weather Forecast

Advertisements
Track Severe Weather on mobile